createdAt,value
2022-10-28T00:00:17.712Z,57.43
2022-10-28T00:01:17.803Z,58.01
2022-10-28T00:02:17.733Z,59.16
2022-10-28T00:03:17.684Z,59.58
2022-10-28T00:04:17.763Z,55.91
2022-10-28T00:05:17.665Z,60.04
2022-10-28T00:06:17.660Z,58.08
2022-10-28T00:07:17.652Z,60.82
2022-10-28T00:08:17.648Z,61.52
2022-10-28T00:09:17.669Z,50.16
2022-10-28T00:10:17.629Z,63.42
2022-10-28T00:11:17.623Z,59.61
2022-10-28T00:12:17.625Z,49.82
2022-10-28T00:13:17.615Z,52.26
2022-10-28T00:14:17.618Z,47.05
2022-10-28T00:15:17.588Z,58.97
2022-10-28T00:16:17.578Z,47.71
2022-10-28T00:17:17.625Z,47.54
2022-10-28T00:18:17.561Z,60.46
2022-10-28T00:19:17.582Z,52.91
2022-10-28T00:20:17.546Z,47.52
2022-10-28T00:21:17.532Z,59.16
2022-10-28T00:22:17.524Z,49.95
2022-10-28T00:23:17.517Z,54.89
2022-10-28T00:24:17.534Z,47.66
2022-10-28T00:25:17.499Z,58.41
2022-10-28T00:26:17.488Z,61.20
2022-10-28T00:27:17.480Z,55.82
2022-10-28T00:28:18.469Z,59.91
2022-10-28T00:29:17.488Z,54.53
2022-10-28T00:30:17.531Z,61.49
2022-10-28T00:31:17.446Z,65.07
2022-10-28T00:32:17.438Z,54.71
2022-10-28T00:33:17.427Z,57.96
2022-10-28T00:34:17.442Z,56.53
2022-10-28T00:35:17.410Z,63.27
2022-10-28T00:36:17.407Z,63.87
2022-10-28T00:37:17.404Z,57.53
2022-10-28T00:38:17.374Z,68.18
2022-10-28T00:39:18.413Z,56.07
2022-10-28T00:40:17.365Z,60.77
2022-10-28T00:41:17.362Z,64.17
2022-10-28T00:42:17.357Z,57.53
2022-10-28T00:43:17.426Z,55.35
2022-10-28T00:44:17.363Z,55.68
2022-10-28T00:45:17.312Z,64.95
2022-10-28T00:46:18.317Z,51.63
2022-10-28T00:47:17.305Z,51.06
2022-10-28T00:48:17.297Z,55.52
2022-10-28T00:49:17.319Z,59.99
2022-10-28T00:50:17.287Z,57.63
2022-10-28T00:51:17.271Z,55.43
2022-10-28T00:52:17.265Z,50.20
2022-10-28T00:53:17.257Z,59.58
2022-10-28T00:54:17.283Z,55.93
2022-10-28T00:55:17.243Z,56.97
2022-10-28T00:56:17.271Z,52.15
2022-10-28T00:57:17.229Z,44.07
2022-10-28T00:58:17.218Z,50.45
2022-10-28T00:59:17.236Z,63.05
2022-10-28T01:00:17.195Z,60.33
2022-10-28T01:01:17.214Z,57.17
2022-10-28T01:02:17.313Z,48.34
2022-10-28T01:03:17.166Z,50.48
2022-10-28T01:04:17.193Z,58.56
2022-10-28T01:05:17.157Z,55.62
2022-10-28T01:06:17.141Z,62.88
2022-10-28T01:07:17.140Z,51.21
2022-10-28T01:08:17.133Z,55.94
2022-10-28T01:09:17.176Z,53.99
2022-10-28T01:10:17.114Z,47.44
2022-10-28T01:11:17.112Z,59.31
2022-10-28T01:12:17.092Z,66.09
2022-10-28T01:13:17.087Z,43.55
2022-10-28T01:14:17.110Z,47.46
2022-10-28T01:15:17.074Z,53.65
2022-10-28T01:16:17.061Z,53.71
2022-10-28T01:17:17.058Z,52.93
2022-10-28T01:18:17.044Z,65.43
2022-10-28T01:19:17.068Z,59.01
2022-10-28T01:20:17.032Z,59.23
2022-10-28T01:21:17.027Z,55.28
2022-10-28T01:22:17.076Z,56.91
2022-10-28T01:23:17.006Z,57.14
2022-10-28T01:24:17.026Z,50.37
2022-10-28T01:25:16.984Z,48.14
2022-10-28T01:26:16.975Z,69.76
2022-10-28T01:27:16.973Z,51.60
2022-10-28T01:28:16.964Z,59.23
2022-10-28T01:29:16.977Z,53.64
2022-10-28T01:30:16.950Z,59.48
2022-10-28T01:31:16.931Z,59.00
2022-10-28T01:32:16.928Z,56.12
2022-10-28T01:33:16.921Z,62.16
2022-10-28T01:34:16.937Z,50.27
2022-10-28T01:35:16.975Z,49.14
2022-10-28T01:36:16.891Z,41.09
2022-10-28T01:37:16.879Z,54.44
2022-10-28T01:38:16.877Z,50.40
2022-10-28T01:39:16.893Z,58.86
2022-10-28T01:40:16.858Z,49.16
2022-10-28T01:41:16.851Z,49.56
2022-10-28T01:42:16.844Z,66.13
2022-10-28T01:43:16.832Z,61.73
2022-10-28T01:44:16.871Z,62.79
2022-10-28T01:45:16.821Z,56.72
2022-10-28T01:46:16.815Z,54.38
2022-10-28T01:47:16.804Z,55.48
2022-10-28T01:48:16.799Z,62.37
2022-10-28T01:49:16.827Z,60.37
2022-10-28T01:50:16.789Z,55.42
2022-10-28T01:51:16.766Z,41.70
2022-10-28T01:52:16.767Z,48.09
2022-10-28T01:53:16.757Z,50.20
2022-10-28T01:54:16.791Z,45.37
2022-10-28T01:55:16.741Z,62.62
2022-10-28T01:56:16.729Z,49.23
2022-10-28T01:57:16.722Z,52.17
2022-10-28T01:58:16.719Z,54.74
2022-10-28T01:59:16.704Z,55.11
2022-10-28T02:00:16.726Z,56.92
2022-10-28T02:01:16.768Z,48.82
2022-10-28T02:02:16.670Z,52.56
2022-10-28T02:03:16.672Z,54.56
2022-10-28T02:04:16.659Z,60.26
2022-10-28T02:05:16.679Z,63.84
2022-10-28T02:06:16.647Z,47.41
2022-10-28T02:07:16.634Z,50.43
2022-10-28T02:08:16.621Z,42.44
2022-10-28T02:09:16.618Z,57.34
2022-10-28T02:10:16.641Z,63.36
2022-10-28T02:11:16.602Z,50.55
2022-10-28T02:12:16.618Z,63.86
2022-10-28T02:13:16.579Z,62.61
2022-10-28T02:14:16.574Z,58.26
2022-10-28T02:15:16.608Z,48.68
2022-10-28T02:16:16.568Z,46.70
2022-10-28T02:17:16.580Z,57.39
2022-10-28T02:18:16.551Z,58.63
2022-10-28T02:19:16.542Z,58.11
2022-10-28T02:20:16.555Z,61.67
2022-10-28T02:21:16.514Z,59.71
2022-10-28T02:22:16.519Z,63.41
2022-10-28T02:23:16.502Z,49.83
2022-10-28T02:24:16.495Z,54.57
2022-10-28T02:25:16.520Z,61.22
2022-10-28T02:26:16.478Z,59.06
2022-10-28T02:27:16.469Z,55.48
2022-10-28T02:28:16.469Z,57.53
2022-10-28T02:29:16.451Z,63.84
2022-10-28T02:30:16.458Z,57.06
2022-10-28T02:31:17.435Z,61.19
2022-10-28T02:32:16.426Z,55.12
2022-10-28T02:33:16.432Z,49.89
2022-10-28T02:34:16.409Z,44.57
2022-10-28T02:35:16.424Z,65.04
2022-10-28T02:36:16.395Z,63.88
2022-10-28T02:37:16.380Z,62.56
2022-10-28T02:38:16.370Z,59.53
2022-10-28T02:39:16.364Z,56.24
2022-10-28T02:40:16.392Z,50.73
2022-10-28T02:41:16.343Z,52.69
2022-10-28T02:42:16.337Z,58.49
2022-10-28T02:43:16.337Z,60.63
2022-10-28T02:44:16.321Z,66.36
2022-10-28T02:45:16.343Z,64.66
2022-10-28T02:46:16.300Z,60.10
2022-10-28T02:47:16.293Z,51.88
2022-10-28T02:48:16.286Z,59.47
2022-10-28T02:49:16.277Z,55.41
2022-10-28T02:50:16.305Z,54.99
2022-10-28T02:51:16.255Z,66.02
2022-10-28T02:52:16.247Z,56.26
2022-10-28T02:53:16.283Z,63.45
2022-10-28T02:54:16.235Z,63.14
2022-10-28T02:55:16.226Z,51.16
2022-10-28T02:56:16.246Z,71.00
2022-10-28T02:57:16.199Z,59.01
2022-10-28T02:58:16.200Z,53.13
2022-10-28T02:59:16.190Z,63.14
2022-10-28T03:00:16.188Z,61.90
2022-10-28T03:01:16.324Z,61.11
2022-10-28T03:02:16.190Z,62.53
2022-10-28T03:03:16.155Z,65.78
2022-10-28T03:04:16.152Z,53.60
2022-10-28T03:05:16.136Z,70.75
2022-10-28T03:06:16.217Z,60.39
2022-10-28T03:07:16.121Z,60.22
2022-10-28T03:08:16.113Z,62.16
2022-10-28T03:09:16.108Z,63.25
2022-10-28T03:10:16.103Z,50.75
2022-10-28T03:11:16.114Z,68.09
2022-10-28T03:12:16.085Z,61.40
2022-10-28T03:13:16.081Z,59.51
2022-10-28T03:14:16.081Z,70.08
2022-10-28T03:15:16.063Z,66.95
2022-10-28T03:16:16.077Z,58.55
2022-10-28T03:17:16.135Z,58.91
2022-10-28T03:18:16.035Z,66.45
2022-10-28T03:19:16.027Z,61.78
2022-10-28T03:20:16.020Z,62.48
2022-10-28T03:21:16.034Z,69.92
2022-10-28T03:22:15.996Z,60.37
2022-10-28T03:23:15.992Z,68.36
2022-10-28T03:24:15.982Z,71.88
2022-10-28T03:25:15.975Z,63.80
2022-10-28T03:26:16.020Z,66.76
2022-10-28T03:27:15.961Z,66.68
2022-10-28T03:28:15.951Z,66.34
2022-10-28T03:29:15.943Z,60.02
2022-10-28T03:30:15.927Z,68.12
2022-10-28T03:31:16.962Z,67.34
2022-10-28T03:32:15.969Z,59.90
2022-10-28T03:33:16.906Z,69.27
2022-10-28T03:34:15.904Z,70.20
2022-10-28T03:35:15.886Z,65.97
2022-10-28T03:36:15.904Z,62.36
2022-10-28T03:37:16.873Z,71.42
2022-10-28T03:38:15.862Z,69.39
2022-10-28T03:39:15.852Z,65.91
2022-10-28T03:40:15.847Z,65.50
2022-10-28T03:41:15.869Z,66.63
2022-10-28T03:42:15.831Z,67.40
2022-10-28T03:43:15.825Z,68.25
2022-10-28T03:44:15.810Z,67.62
2022-10-28T03:45:15.797Z,68.89
2022-10-28T03:46:15.823Z,62.50
2022-10-28T03:47:15.781Z,64.44
2022-10-28T03:48:15.777Z,66.79
2022-10-28T03:49:15.773Z,60.45
2022-10-28T03:50:15.754Z,70.87
2022-10-28T03:51:15.776Z,59.38
2022-10-28T03:52:15.742Z,66.97
2022-10-28T03:53:15.728Z,62.38
2022-10-28T03:54:15.728Z,66.00
2022-10-28T03:55:15.718Z,63.14
2022-10-28T03:56:15.740Z,58.33
2022-10-28T03:57:15.705Z,70.14
2022-10-28T03:58:15.697Z,60.78
2022-10-28T03:59:19.265Z,58.76
2022-10-28T04:00:15.678Z,68.72
2022-10-28T04:01:15.791Z,66.29
2022-10-28T04:02:15.929Z,59.15
2022-10-28T04:03:15.654Z,58.45
2022-10-28T04:04:15.639Z,68.35
2022-10-28T04:05:15.637Z,66.29
2022-10-28T04:06:15.655Z,62.62
2022-10-28T04:07:15.627Z,67.72
2022-10-28T04:08:15.607Z,72.42
2022-10-28T04:09:15.597Z,66.43
2022-10-28T04:10:15.591Z,66.08
2022-10-28T04:11:15.767Z,67.88
2022-10-28T04:12:15.588Z,70.81
2022-10-28T04:13:15.561Z,65.01
2022-10-28T04:14:15.557Z,62.38
2022-10-28T04:15:15.559Z,57.24
2022-10-28T04:16:15.580Z,67.66
2022-10-28T04:17:15.537Z,69.80
2022-10-28T04:18:15.539Z,65.14
2022-10-28T04:19:15.517Z,66.70
2022-10-28T04:20:15.514Z,69.18
2022-10-28T04:21:15.542Z,69.20
2022-10-28T04:22:15.526Z,66.27
2022-10-28T04:23:15.488Z,67.92
2022-10-28T04:24:15.480Z,71.00
2022-10-28T04:26:16.493Z,70.38
2022-10-28T04:27:15.460Z,68.98
2022-10-28T04:28:15.448Z,66.55
2022-10-28T04:29:15.443Z,70.20
2022-10-28T04:30:15.435Z,64.56
2022-10-28T04:31:15.424Z,67.28
2022-10-28T04:32:15.439Z,66.08
2022-10-28T04:33:15.406Z,70.36
2022-10-28T04:34:15.401Z,67.00
2022-10-28T04:35:15.415Z,65.54
2022-10-28T04:36:15.381Z,65.75
2022-10-28T04:37:20.377Z,66.14
2022-10-28T04:38:17.396Z,69.88
2022-10-28T04:39:15.357Z,71.99
2022-10-28T04:40:15.351Z,70.22
2022-10-28T04:41:15.348Z,70.70
2022-10-28T04:42:15.356Z,65.24
2022-10-28T04:43:15.327Z,69.93
2022-10-28T04:44:15.310Z,69.41
2022-10-28T04:45:15.301Z,70.29
2022-10-28T04:46:15.309Z,66.15
2022-10-28T04:47:15.312Z,66.73
2022-10-28T04:48:15.281Z,68.45
2022-10-28T04:49:15.262Z,66.51
2022-10-28T04:50:15.260Z,69.16
2022-10-28T04:51:15.282Z,71.15
2022-10-28T04:52:15.962Z,70.63
2022-10-28T04:53:15.237Z,62.90
2022-10-28T04:54:15.230Z,67.90
2022-10-28T04:55:15.214Z,70.53
2022-10-28T04:56:15.245Z,72.15
2022-10-28T04:57:15.195Z,67.70
2022-10-28T04:58:15.193Z,68.02
2022-10-28T04:59:15.183Z,64.03
2022-10-28T05:00:15.179Z,73.88
2022-10-28T05:01:15.301Z,70.41
2022-10-28T05:02:15.240Z,69.76
2022-10-28T05:03:15.170Z,64.83
2022-10-28T05:04:16.140Z,69.94
2022-10-28T05:06:15.165Z,71.26
2022-10-28T05:07:17.607Z,71.70
2022-10-28T05:08:15.106Z,68.11
2022-10-28T05:09:15.110Z,70.47
2022-10-28T05:10:15.086Z,69.81
2022-10-28T05:11:15.112Z,67.50
2022-10-28T05:12:15.072Z,66.88
2022-10-28T05:13:15.063Z,70.02
2022-10-28T05:14:15.067Z,71.05
2022-10-28T05:15:15.049Z,70.49
2022-10-28T05:16:15.046Z,64.27
2022-10-28T05:17:15.060Z,69.08
2022-10-28T05:18:15.023Z,70.43
2022-10-28T05:19:15.013Z,67.41
2022-10-28T05:20:15.011Z,68.76
2022-10-28T05:21:15.039Z,69.13
2022-10-28T05:22:14.999Z,65.33
2022-10-28T05:23:14.985Z,65.10
2022-10-28T05:24:14.969Z,66.92
2022-10-28T05:25:14.964Z,68.20
2022-10-28T05:26:14.954Z,71.08
2022-10-28T05:27:14.982Z,67.61
2022-10-28T05:28:14.942Z,62.06
2022-10-28T05:29:14.927Z,66.45
2022-10-28T05:30:14.942Z,70.66
2022-10-28T05:31:14.911Z,70.80
2022-10-28T05:32:14.932Z,69.06
2022-10-28T05:33:14.891Z,66.93
2022-10-28T05:34:15.889Z,70.76
2022-10-28T05:35:14.886Z,65.91
2022-10-28T05:36:14.872Z,66.79
2022-10-28T05:37:14.891Z,67.63
2022-10-28T05:38:14.851Z,66.70
2022-10-28T05:39:14.842Z,70.11
2022-10-28T05:40:14.841Z,68.14
2022-10-28T05:41:14.825Z,68.00
2022-10-28T05:42:14.845Z,71.52
2022-10-28T05:43:14.805Z,69.44
2022-10-28T05:44:14.800Z,68.36
2022-10-28T05:45:14.895Z,66.23
2022-10-28T05:46:14.785Z,68.17
2022-10-28T05:47:14.812Z,72.09
2022-10-28T05:48:14.775Z,67.11
2022-10-28T05:49:14.850Z,65.50
2022-10-28T05:50:15.022Z,69.67
2022-10-28T05:51:14.961Z,67.47
2022-10-28T05:52:14.758Z,69.96
2022-10-28T05:53:14.723Z,68.46
2022-10-28T05:54:14.718Z,71.03
2022-10-28T05:55:14.711Z,70.91
2022-10-28T05:56:14.697Z,67.12
2022-10-28T05:57:14.715Z,65.64
2022-10-28T05:58:14.678Z,66.63
2022-10-28T05:59:14.680Z,70.22
2022-10-28T06:00:14.663Z,66.91
2022-10-28T06:01:14.687Z,62.98
2022-10-28T06:02:14.671Z,67.30
2022-10-28T06:03:14.642Z,69.36
2022-10-28T06:04:14.692Z,67.60
2022-10-28T06:05:14.631Z,69.52
2022-10-28T06:06:14.618Z,64.94
2022-10-28T06:07:14.637Z,68.11
2022-10-28T06:08:14.593Z,67.17
2022-10-28T06:09:14.593Z,64.95
2022-10-28T06:10:14.570Z,70.49
2022-10-28T06:11:13.036Z,66.49
2022-10-28T06:12:13.055Z,71.20
2022-10-28T06:13:13.018Z,66.96
2022-10-28T06:14:13.012Z,70.59
2022-10-28T06:15:13.007Z,64.13
2022-10-28T06:16:12.996Z,66.87
2022-10-28T06:17:13.024Z,67.13
2022-10-28T06:18:16.665Z,68.83
2022-10-28T06:19:14.967Z,66.91
2022-10-28T06:20:12.967Z,72.49
2022-10-28T06:21:12.965Z,71.23
2022-10-28T06:22:12.972Z,66.60
2022-10-28T06:23:12.948Z,69.36
2022-10-28T06:24:12.943Z,68.48
2022-10-28T06:25:12.942Z,72.01
2022-10-28T06:26:12.914Z,66.07
2022-10-28T06:27:12.943Z,63.78
2022-10-28T06:28:12.893Z,71.31
2022-10-28T06:29:13.896Z,68.40
2022-10-28T06:30:12.880Z,63.47
2022-10-28T06:31:12.904Z,69.02
2022-10-28T06:32:12.906Z,70.71
2022-10-28T06:33:12.861Z,70.82
2022-10-28T06:34:12.851Z,67.62
2022-10-28T06:35:12.854Z,64.14
2022-10-28T06:36:12.869Z,68.70
2022-10-28T06:37:12.864Z,62.44
2022-10-28T06:38:12.820Z,55.92
2022-10-28T06:39:12.873Z,71.77
2022-10-28T06:40:12.809Z,73.09
2022-10-28T06:41:12.794Z,62.49
2022-10-28T06:42:13.882Z,67.85
2022-10-28T06:43:12.784Z,67.93
2022-10-28T06:44:12.778Z,67.37
2022-10-28T06:45:12.776Z,62.53
2022-10-28T06:46:12.774Z,66.21
2022-10-28T06:47:14.301Z,68.64
2022-10-28T06:48:14.264Z,65.16
2022-10-28T06:49:14.254Z,69.12
2022-10-28T06:50:14.251Z,69.93
2022-10-28T06:51:14.278Z,62.35
2022-10-28T06:52:14.229Z,70.74
2022-10-28T06:53:14.232Z,65.91
2022-10-28T06:54:14.223Z,67.60
2022-10-28T06:55:14.208Z,66.79
2022-10-28T06:56:14.267Z,71.72
2022-10-28T06:57:14.206Z,74.47
2022-10-28T06:58:14.192Z,69.91
2022-10-28T06:59:14.186Z,68.56
2022-10-28T07:00:14.177Z,69.35
2022-10-28T07:01:14.196Z,67.60
2022-10-28T07:02:14.281Z,71.38
2022-10-28T07:03:14.144Z,68.70
2022-10-28T07:04:14.138Z,70.93
2022-10-28T07:05:14.131Z,67.97
2022-10-28T07:07:14.143Z,66.53
2022-10-28T07:08:14.109Z,66.05
2022-10-28T07:09:14.105Z,68.65
2022-10-28T07:10:14.088Z,67.17
2022-10-28T07:11:14.083Z,68.06
2022-10-28T07:12:14.182Z,72.45
2022-10-28T07:13:14.062Z,68.95
2022-10-28T07:14:14.056Z,69.46
2022-10-28T07:15:14.058Z,68.58
2022-10-28T07:16:14.035Z,69.38
2022-10-28T07:17:14.071Z,66.68
2022-10-28T07:18:14.025Z,67.44
2022-10-28T07:19:14.027Z,65.29
2022-10-28T07:20:13.996Z,71.58
2022-10-28T07:21:14.997Z,67.21
2022-10-28T07:22:14.037Z,72.15
2022-10-28T07:23:13.990Z,68.44
2022-10-28T07:24:14.061Z,64.15
2022-10-28T07:25:13.968Z,69.15
2022-10-28T07:26:13.983Z,70.00
2022-10-28T07:27:13.985Z,69.36
2022-10-28T07:28:13.954Z,68.81
2022-10-28T07:29:13.941Z,69.26
2022-10-28T07:30:13.933Z,72.97
2022-10-28T07:31:13.928Z,68.24
2022-10-28T07:32:13.951Z,68.22
2022-10-28T07:33:13.909Z,69.46
2022-10-28T07:34:13.903Z,69.39
2022-10-28T07:35:13.909Z,69.76
2022-10-28T07:36:13.887Z,62.64
2022-10-28T07:37:13.908Z,65.18
2022-10-28T07:38:13.871Z,66.89
2022-10-28T07:39:13.857Z,70.28
2022-10-28T07:40:13.849Z,69.58
2022-10-28T07:41:13.850Z,66.89
2022-10-28T07:42:13.870Z,67.91
2022-10-28T07:43:13.830Z,69.38
2022-10-28T07:44:13.825Z,65.39
2022-10-28T07:45:13.821Z,63.94
2022-10-28T07:46:13.805Z,66.51
2022-10-28T07:47:13.823Z,70.26
2022-10-28T07:48:13.789Z,69.36
2022-10-28T07:49:13.813Z,67.59
2022-10-28T07:50:13.774Z,68.82
2022-10-28T07:51:13.784Z,68.25
2022-10-28T07:52:13.790Z,66.03
2022-10-28T07:54:13.742Z,61.85
2022-10-28T07:55:13.732Z,67.95
2022-10-28T07:56:13.749Z,68.14
2022-10-28T07:57:13.742Z,64.49
2022-10-28T07:58:13.707Z,63.74
2022-10-28T07:59:13.702Z,65.85
2022-10-28T08:00:13.708Z,67.43
2022-10-28T08:01:13.778Z,66.74
2022-10-28T08:02:13.765Z,61.48
2022-10-28T08:03:13.661Z,62.63
2022-10-28T08:04:13.652Z,65.32
2022-10-28T08:05:13.641Z,65.04
2022-10-28T08:06:13.633Z,66.24
2022-10-28T08:07:13.649Z,65.71
2022-10-28T08:08:13.604Z,65.33
2022-10-28T08:09:13.595Z,70.69
2022-10-28T08:10:13.583Z,64.81
2022-10-28T08:11:13.584Z,67.19
2022-10-28T08:12:13.597Z,69.61
2022-10-28T08:13:13.555Z,66.42
2022-10-28T08:14:13.546Z,59.95
2022-10-28T08:15:13.539Z,63.93
2022-10-28T08:16:13.531Z,68.53
2022-10-28T08:17:13.544Z,64.61
2022-10-28T08:18:13.514Z,66.07
2022-10-28T08:19:13.496Z,70.10
2022-10-28T08:20:13.493Z,67.93
2022-10-28T08:21:13.492Z,69.69
2022-10-28T08:22:13.505Z,71.74
2022-10-28T08:23:13.455Z,67.64
2022-10-28T08:24:13.458Z,69.88
2022-10-28T08:25:13.448Z,71.01
2022-10-28T08:26:13.439Z,69.57
2022-10-28T08:27:13.428Z,69.49
2022-10-28T08:28:13.444Z,64.99
2022-10-28T08:29:13.421Z,65.93
2022-10-28T08:30:13.407Z,68.98
2022-10-28T08:31:13.410Z,69.59
2022-10-28T08:32:13.400Z,67.27
2022-10-28T08:33:13.407Z,68.20
2022-10-28T08:34:13.425Z,64.08
2022-10-28T08:35:13.363Z,70.42
2022-10-28T08:36:13.359Z,68.22
2022-10-28T08:37:13.370Z,63.22
2022-10-28T08:38:13.372Z,63.76
2022-10-28T08:39:13.333Z,65.26
2022-10-28T08:40:13.329Z,69.59
2022-10-28T08:41:13.323Z,65.75
2022-10-28T08:42:13.327Z,62.43
2022-10-28T08:43:13.360Z,67.87
2022-10-28T08:44:13.293Z,70.12
2022-10-28T08:45:15.799Z,65.37
2022-10-28T08:46:14.276Z,66.04
2022-10-28T08:47:13.284Z,62.75
2022-10-28T08:48:13.297Z,68.30
2022-10-28T08:49:13.267Z,69.21
2022-10-28T08:50:13.251Z,64.76
2022-10-28T08:51:13.250Z,63.49
2022-10-28T08:52:13.241Z,68.42
2022-10-28T08:53:13.256Z,67.05
2022-10-28T08:54:13.226Z,66.66
2022-10-28T08:55:13.219Z,66.34
2022-10-28T08:56:13.207Z,62.73
2022-10-28T08:57:17.786Z,70.88
2022-10-28T08:58:15.239Z,65.68
2022-10-28T08:59:13.189Z,67.92
2022-10-28T09:00:13.179Z,65.72
2022-10-28T09:01:13.264Z,62.26
2022-10-28T09:02:13.178Z,65.15
2022-10-28T09:03:13.184Z,63.19
2022-10-28T09:04:13.160Z,67.81
2022-10-28T09:05:13.140Z,68.38
2022-10-28T09:06:13.140Z,64.32
2022-10-28T09:07:13.128Z,60.11
2022-10-28T09:08:13.149Z,66.07
2022-10-28T09:09:13.117Z,68.71
2022-10-28T09:10:13.114Z,67.03
2022-10-28T09:11:13.105Z,63.04
2022-10-28T09:12:13.092Z,64.62
2022-10-28T09:13:13.112Z,68.48
2022-10-28T09:14:13.091Z,64.26
2022-10-28T09:15:13.069Z,62.05
2022-10-28T09:16:15.276Z,65.40
2022-10-28T09:17:13.054Z,69.79
2022-10-28T09:18:13.078Z,65.48
2022-10-28T09:19:13.039Z,63.36
2022-10-28T09:20:13.035Z,67.21
2022-10-28T09:21:13.026Z,69.66
2022-10-28T09:22:15.246Z,67.91
2022-10-28T09:23:13.049Z,66.55
2022-10-28T09:24:13.011Z,70.05
2022-10-28T09:25:13.003Z,67.67
2022-10-28T09:26:13.001Z,65.42
2022-10-28T09:27:12.991Z,68.20
2022-10-28T09:28:13.015Z,65.93
2022-10-28T09:29:12.993Z,68.12
2022-10-28T09:30:12.992Z,63.55
2022-10-28T09:31:12.979Z,65.97
2022-10-28T09:32:12.974Z,59.97
2022-10-28T09:33:13.041Z,64.06
2022-10-28T09:34:13.100Z,67.57
2022-10-28T09:35:13.420Z,65.36
2022-10-28T09:36:16.373Z,69.61
2022-10-28T09:37:28.384Z,64.06
2022-10-28T09:42:37.465Z,64.62
2022-10-28T09:43:37.434Z,65.37
2022-10-28T09:44:37.407Z,67.82
2022-10-28T09:45:37.388Z,67.90
2022-10-28T09:46:37.457Z,69.22
2022-10-28T09:47:37.369Z,68.05
2022-10-28T09:48:37.401Z,63.14
2022-10-28T09:49:38.511Z,68.45
2022-10-28T09:50:38.501Z,63.70
2022-10-28T09:51:38.489Z,65.38
2022-10-28T09:52:38.491Z,68.87
2022-10-28T09:53:38.517Z,66.82
2022-10-28T09:54:38.474Z,64.08
2022-10-28T09:55:38.463Z,56.54
2022-10-28T09:56:38.469Z,68.22
2022-10-28T09:57:38.452Z,69.70
2022-10-28T09:58:38.472Z,67.40
2022-10-28T09:59:38.435Z,65.66
2022-10-28T10:00:38.429Z,68.45
2022-10-28T10:01:38.532Z,60.76
2022-10-28T10:02:38.517Z,66.26
2022-10-28T10:03:38.439Z,69.35
2022-10-28T10:04:38.408Z,66.08
2022-10-28T10:05:38.397Z,67.25
2022-10-28T10:06:38.390Z,64.75
2022-10-28T10:07:38.389Z,68.94
2022-10-28T10:08:38.411Z,65.58
2022-10-28T10:09:38.367Z,65.32
2022-10-28T10:10:38.369Z,66.49
2022-10-28T10:11:38.365Z,65.24
2022-10-28T10:12:38.348Z,65.75
2022-10-28T10:13:38.376Z,67.41
2022-10-28T10:14:38.353Z,67.91
2022-10-28T10:15:38.333Z,68.82
2022-10-28T10:16:38.320Z,68.61
2022-10-28T10:17:38.326Z,67.29
2022-10-28T10:18:38.337Z,64.80
2022-10-28T10:19:38.308Z,68.06
2022-10-28T10:20:38.309Z,67.41
2022-10-28T10:21:38.286Z,65.49
2022-10-28T10:22:38.282Z,60.40
2022-10-28T10:24:38.267Z,65.64
2022-10-28T10:25:38.263Z,69.32
2022-10-28T10:26:38.263Z,66.80
2022-10-28T10:27:38.250Z,68.33
2022-10-28T10:28:38.276Z,66.18
2022-10-28T10:29:38.241Z,68.42
2022-10-28T10:30:38.236Z,66.36
2022-10-28T10:31:38.228Z,67.65
2022-10-28T10:32:38.212Z,69.96
2022-10-28T10:33:38.233Z,65.44
2022-10-28T10:34:38.203Z,65.87
2022-10-28T10:35:38.199Z,62.97
2022-10-28T10:36:38.199Z,66.09
2022-10-28T10:37:38.211Z,68.47
2022-10-28T10:38:38.196Z,66.14
2022-10-28T10:39:39.177Z,63.68
2022-10-28T10:40:38.161Z,64.64
2022-10-28T10:41:38.157Z,68.22
2022-10-28T10:42:46.509Z,69.79
2022-10-28T10:43:40.223Z,66.72
2022-10-28T10:44:38.144Z,64.58
2022-10-28T10:45:38.136Z,67.57
2022-10-28T10:46:38.127Z,70.78
2022-10-28T10:47:38.123Z,68.80
2022-10-28T10:48:38.136Z,67.60
2022-10-28T10:49:38.099Z,68.67
2022-10-28T10:50:38.101Z,65.02
2022-10-28T10:51:40.151Z,64.09
2022-10-28T10:52:38.088Z,66.53
2022-10-28T10:53:38.107Z,67.90
2022-10-28T10:54:38.074Z,65.20
2022-10-28T10:55:38.061Z,63.66
2022-10-28T10:56:38.047Z,64.24
2022-10-28T10:57:38.045Z,62.61
2022-10-28T10:58:38.072Z,68.60
2022-10-28T10:59:38.038Z,66.71
2022-10-28T11:00:38.032Z,65.29
2022-10-28T11:01:38.167Z,63.49
2022-10-28T11:02:38.156Z,65.42
2022-10-28T11:03:38.037Z,67.59
2022-10-28T11:04:37.993Z,66.88
2022-10-28T11:05:38.508Z,65.64
2022-10-28T11:06:38.987Z,64.22
2022-10-28T11:07:37.975Z,63.38
2022-10-28T11:08:37.995Z,67.40
2022-10-28T11:09:37.957Z,66.31
2022-10-28T11:10:37.953Z,62.10
2022-10-28T11:11:37.938Z,63.33
2022-10-28T11:12:37.941Z,66.33
2022-10-28T11:13:40.063Z,68.21
2022-10-28T11:14:37.925Z,69.62
2022-10-28T11:15:37.916Z,69.74
2022-10-28T11:16:37.911Z,64.90
2022-10-28T11:17:37.904Z,62.97
2022-10-28T11:18:37.929Z,68.32
2022-10-28T11:19:37.887Z,65.94
2022-10-28T11:20:37.887Z,64.57
2022-10-28T11:21:37.874Z,64.39
2022-10-28T11:22:37.912Z,66.96
2022-10-28T11:23:37.886Z,67.40
2022-10-28T11:24:37.838Z,63.00
2022-10-28T11:25:37.843Z,69.55
2022-10-28T11:26:37.830Z,66.17
2022-10-28T11:27:37.816Z,64.02
2022-10-28T11:28:37.858Z,70.60
2022-10-28T11:29:37.807Z,68.62
2022-10-28T11:30:37.811Z,64.84
2022-10-28T11:31:37.789Z,60.87
2022-10-28T11:32:45.181Z,69.78
2022-10-28T11:33:39.134Z,67.65
2022-10-28T11:34:37.769Z,65.98
2022-10-28T11:35:37.759Z,65.99
2022-10-28T11:36:37.752Z,65.63
2022-10-28T11:37:37.746Z,67.85
2022-10-28T11:38:38.469Z,69.71
2022-10-28T11:39:37.732Z,68.17
2022-10-28T11:40:37.712Z,67.72
2022-10-28T11:41:38.722Z,65.31
2022-10-28T11:42:37.710Z,64.86
2022-10-28T11:43:37.734Z,67.15
2022-10-28T11:44:37.696Z,65.54
2022-10-28T11:45:37.680Z,70.64
2022-10-28T11:46:37.676Z,68.69
2022-10-28T11:47:37.674Z,67.99
2022-10-28T11:48:37.694Z,67.59
2022-10-28T11:49:37.661Z,70.61
2022-10-28T11:50:37.661Z,68.01
2022-10-28T11:51:37.644Z,64.30
2022-10-28T11:52:42.617Z,68.05
2022-10-28T11:53:39.673Z,68.22
2022-10-28T11:54:37.618Z,66.06
2022-10-28T11:55:37.610Z,67.12
2022-10-28T11:56:37.601Z,68.37
2022-10-28T11:57:37.599Z,65.78
2022-10-28T11:58:37.617Z,66.87
2022-10-28T11:59:37.580Z,66.42
2022-10-28T12:00:37.602Z,63.04
2022-10-28T12:01:37.643Z,67.46
2022-10-28T12:02:37.671Z,66.09
2022-10-28T12:03:37.578Z,67.11
2022-10-28T12:04:37.568Z,68.39
2022-10-28T12:05:37.558Z,68.22
2022-10-28T12:06:37.530Z,67.26
2022-10-28T12:07:37.518Z,67.52
2022-10-28T12:08:37.555Z,65.77
2022-10-28T12:09:37.509Z,61.95
2022-10-28T12:10:37.496Z,70.93
2022-10-28T12:11:37.490Z,68.39
2022-10-28T12:12:39.734Z,62.40
2022-10-28T12:13:37.518Z,66.85
2022-10-28T12:14:37.461Z,68.13
2022-10-28T12:15:37.453Z,66.77
2022-10-28T12:16:37.452Z,68.15
2022-10-28T12:17:37.442Z,67.76
2022-10-28T12:18:37.467Z,70.29
2022-10-28T12:19:37.425Z,67.53
2022-10-28T12:20:37.422Z,65.95
2022-10-28T12:21:37.413Z,66.41
2022-10-28T12:22:37.396Z,68.83
2022-10-28T12:23:37.395Z,68.47
2022-10-28T12:24:37.513Z,69.00
2022-10-28T12:25:37.397Z,68.92
2022-10-28T12:26:37.380Z,66.59
2022-10-28T12:27:37.366Z,63.67
2022-10-28T12:28:37.363Z,66.42
2022-10-28T12:29:37.391Z,67.79
2022-10-28T12:30:37.348Z,67.95
2022-10-28T12:31:37.351Z,68.53
2022-10-28T12:32:37.333Z,65.45
2022-10-28T12:33:37.323Z,63.52
2022-10-28T12:35:38.303Z,66.56
2022-10-28T12:36:37.303Z,66.25
2022-10-28T12:37:37.287Z,67.80
2022-10-28T12:38:37.278Z,69.34
2022-10-28T12:39:37.301Z,65.86
2022-10-28T12:40:37.266Z,69.64
2022-10-28T12:41:37.297Z,65.66
2022-10-28T12:42:37.253Z,66.99
2022-10-28T12:43:37.261Z,66.70
2022-10-28T12:44:37.268Z,61.97
2022-10-28T12:45:37.226Z,60.49
2022-10-28T12:46:37.255Z,69.14
2022-10-28T12:47:40.508Z,68.90
2022-10-28T12:48:38.205Z,70.22
2022-10-28T12:49:37.229Z,66.86
2022-10-28T12:50:37.197Z,64.21
2022-10-28T12:51:37.186Z,65.55
2022-10-28T12:52:37.171Z,65.38
2022-10-28T12:53:37.195Z,66.69
2022-10-28T12:54:37.196Z,66.68
2022-10-28T12:55:37.162Z,65.48
2022-10-28T12:56:37.220Z,65.63
2022-10-28T12:57:37.140Z,64.91
2022-10-28T12:58:37.134Z,66.15
2022-10-28T12:59:37.154Z,69.98
2022-10-28T13:00:37.141Z,69.78
2022-10-28T13:01:37.206Z,66.98
2022-10-28T13:02:37.174Z,65.87